»·PEaware :: N564GT KTEX-UT25

N564GT :: KTEX-UT25

FLIGHT INFORMATION

Flight Status: Arrived
Operator: Privately registered:
United States
More flights under this callsign
Pilot: Jeremey H. (44477)
Aircraft: PIPER PA-24 COMMANCHE
(PA24)
More flights by this aircraft type
Origin: KTEX Telluride Regl
United States
Destination: UT25 Monument Valley
United States
More flights between these airports :: More routes between these airports
Route: HAVWU DVC
File this flight plan on PilotEdge
Remarks:
Altitude:
(Current/Filed)
12,000ft
Speed:
(Current/Filed)
140kts
Departed: 02-Sep-23 12:25 PM
Arrived: 02-Sep-23 01:51 PM
Distance/Time
Traveled:
123nm/1:26
Distance/Time
To Go:
Arrived

Flight Plot

Page will automatically refresh every two minutes.

Flight plan parsing failed; only flown route is shown


Map Options




Map Legend


Flown Route
Filed Route
Departure Airport
Arrival Airport
Navaid (VOR, NDB)
Fix

Horizontal Profiles

Position Reports

Time Latitude Longitude Heading Altitude Ground
Speed
02-Sep-23 11:59 37.954342 -107.902781 102 9043ft 0kts
02-Sep-23 12:00 37.954342 -107.902781 102 9043ft 0kts
02-Sep-23 12:01 37.954342 -107.902781 102 9052ft 0kts
02-Sep-23 12:02 37.954342 -107.902781 102 9052ft 0kts
02-Sep-23 12:03 37.954342 -107.902781 102 9052ft 0kts
02-Sep-23 12:04 37.954342 -107.902781 102 9052ft 0kts
02-Sep-23 12:05 37.954342 -107.902781 102 9052ft 0kts
02-Sep-23 12:06 37.954342 -107.902781 102 9052ft 0kts
02-Sep-23 12:07 37.954342 -107.902781 102 9052ft 0kts
02-Sep-23 12:08 37.954342 -107.902781 102 9052ft 0kts
02-Sep-23 12:09 37.954342 -107.902781 102 9052ft 0kts
02-Sep-23 12:10 37.954342 -107.902781 102 9052ft 0kts
02-Sep-23 12:11 37.954342 -107.902781 102 9052ft 0kts
02-Sep-23 12:12 37.954342 -107.902781 102 9052ft 0kts
02-Sep-23 12:13 37.954342 -107.902781 102 9052ft 0kts
02-Sep-23 12:14 37.954342 -107.902781 102 9052ft 0kts
02-Sep-23 12:15 37.954342 -107.902781 102 9052ft 0kts
02-Sep-23 12:16 37.954342 -107.902781 102 9052ft 0kts
02-Sep-23 12:17 37.954019 -107.902607 192 9050ft 3kts
02-Sep-23 12:18 37.953563 -107.902414 101 9052ft 0kts
02-Sep-23 12:19 37.953295 -107.901300 146 9052ft 0kts
02-Sep-23 12:20 37.953295 -107.901300 146 9052ft 0kts
02-Sep-23 12:21 37.953295 -107.901300 146 9052ft 0kts
02-Sep-23 12:22 37.953295 -107.901300 146 9052ft 0kts
02-Sep-23 12:23 37.952821 -107.903744 285 9029ft 37kts
02-Sep-23 12:24 37.950815 -107.897392 113 9068ft 57kts
02-Sep-23 12:30 37.954342 -107.902781 102 9052ft 0kts
02-Sep-23 12:31 37.954342 -107.902781 102 9052ft 0kts
02-Sep-23 12:32 37.954342 -107.902781 102 9052ft 0kts
02-Sep-23 12:33 37.954342 -107.902781 102 9052ft 0kts
02-Sep-23 12:34 37.954342 -107.902781 102 9052ft 0kts
02-Sep-23 12:35 37.954342 -107.902781 102 9052ft 0kts
02-Sep-23 12:36 37.954342 -107.902781 102 9052ft 0kts
02-Sep-23 12:37 37.954342 -107.902781 102 9052ft 0kts
02-Sep-23 12:38 37.954342 -107.902781 102 9052ft 0kts
02-Sep-23 12:39 37.954091 -107.902477 145 9052ft 12kts
02-Sep-23 12:40 37.952433 -107.896913 118 9069ft 10kts
02-Sep-23 12:41 37.952680 -107.903630 285 9033ft 80kts
02-Sep-23 12:42 37.958727 -107.931129 279 9676ft 86kts
02-Sep-23 12:43 37.965291 -107.959645 285 10381ft 80kts
02-Sep-23 12:44 37.965814 -107.985285 251 10883ft 68kts
02-Sep-23 12:45 37.961581 -108.009709 249 11311ft 72kts
02-Sep-23 12:46 37.961397 -108.035294 267 11802ft 77kts
02-Sep-23 12:47 37.961423 -108.062492 252 12126ft 82kts
02-Sep-23 12:48 37.960116 -108.091164 268 11947ft 85kts
02-Sep-23 12:49 37.959793 -108.128091 266 11890ft 121kts
02-Sep-23 12:50 37.963090 -108.174242 273 11838ft 136kts
02-Sep-23 12:51 37.964915 -108.223309 256 11721ft 143kts
02-Sep-23 12:52 37.966896 -108.271770 272 11701ft 138kts
02-Sep-23 12:53 37.964507 -108.318651 272 11639ft 131kts
02-Sep-23 12:54 37.971513 -108.365163 272 11567ft 132kts
02-Sep-23 12:55 37.969994 -108.411525 258 11561ft 134kts
02-Sep-23 12:56 37.970385 -108.458057 269 11553ft 133kts
02-Sep-23 12:57 37.959147 -108.500767 242 11546ft 124kts
02-Sep-23 12:58 37.944867 -108.540403 242 11542ft 125kts
02-Sep-23 12:59 37.930559 -108.580930 242 11537ft 125kts
02-Sep-23 13:00 37.916482 -108.621261 241 11535ft 125kts
02-Sep-23 13:01 37.903454 -108.661905 247 11532ft 124kts
02-Sep-23 13:02 37.887804 -108.700221 241 11529ft 118kts
02-Sep-23 13:03 37.874586 -108.740530 246 11532ft 128kts
02-Sep-23 13:04 37.862346 -108.781160 240 11631ft 116kts
02-Sep-23 13:05 37.849337 -108.814677 236 11983ft 109kts
02-Sep-23 13:06 37.836402 -108.851115 241 12002ft 120kts
02-Sep-23 13:07 37.821550 -108.890128 242 11947ft 127kts
02-Sep-23 13:08 37.808411 -108.931579 244 11752ft 126kts
02-Sep-23 13:09 37.786864 -108.965569 227 11758ft 122kts
02-Sep-23 13:10 37.765959 -108.999181 227 11760ft 121kts
02-Sep-23 13:11 37.746485 -109.033894 234 11760ft 121kts
02-Sep-23 13:12 37.727399 -109.068256 226 11753ft 117kts
02-Sep-23 13:13 37.705143 -109.097796 225 11779ft 117kts
02-Sep-23 13:14 37.684193 -109.129358 230 11801ft 118kts
02-Sep-23 13:15 37.667006 -109.164718 232 11834ft 118kts
02-Sep-23 13:16 37.646931 -109.197647 225 11859ft 117kts
02-Sep-23 13:17 37.625342 -109.228323 226 11887ft 117kts
02-Sep-23 13:18 37.604784 -109.260399 233 11913ft 118kts
02-Sep-23 13:19 37.585965 -109.294698 229 11941ft 119kts
02-Sep-23 13:20 37.565073 -109.326811 227 11964ft 117kts
02-Sep-23 13:21 37.544931 -109.359230 230 11984ft 118kts
02-Sep-23 13:22 37.525278 -109.392641 228 11988ft 119kts
02-Sep-23 13:23 37.504091 -109.424312 228 11981ft 117kts
02-Sep-23 13:24 37.484256 -109.457203 230 11975ft 118kts
02-Sep-23 13:25 37.464002 -109.490153 229 11957ft 119kts
02-Sep-23 13:26 37.443409 -109.522789 228 11930ft 119kts
02-Sep-23 13:27 37.422577 -109.555711 228 11919ft 123kts
02-Sep-23 13:28 37.401723 -109.590341 228 11675ft 125kts
02-Sep-23 13:29 37.380183 -109.624671 228 11333ft 124kts
02-Sep-23 13:30 37.358140 -109.658381 227 10982ft 124kts
02-Sep-23 13:31 37.336995 -109.692922 229 10631ft 125kts
02-Sep-23 13:33 37.315880 -109.727447 231 10281ft 124kts
02-Sep-23 13:34 37.293784 -109.760878 235 9851ft 124kts
02-Sep-23 13:35 37.272739 -109.795452 228 9535ft 123kts
02-Sep-23 13:36 37.251567 -109.829559 233 9098ft 131kts
02-Sep-23 13:37 37.228455 -109.865288 231 8483ft 129kts
02-Sep-23 13:38 37.220430 -109.878239 233 8200ft 132kts
02-Sep-23 13:39 37.200929 -109.910354 231 7649ft 128kts
02-Sep-23 13:40 37.178253 -109.945095 230 7185ft 129kts
02-Sep-23 13:41 37.156034 -109.980290 231 6978ft 127kts
02-Sep-23 13:42 37.134600 -110.015909 229 6722ft 128kts
02-Sep-23 13:43 37.113270 -110.047588 231 6435ft 114kts
02-Sep-23 13:44 37.095014 -110.074176 229 6428ft 93kts
02-Sep-23 13:45 37.084136 -110.104050 273 6434ft 102kts
02-Sep-23 13:46 37.087630 -110.141335 274 6447ft 111kts
02-Sep-23 13:47 37.088820 -110.179978 239 6446ft 114kts
02-Sep-23 13:48 37.070791 -110.203903 195 6316ft 95kts
02-Sep-23 13:49 37.043256 -110.205420 176 5720ft 96kts
02-Sep-23 13:50 37.019954 -110.202493 178 5143ft 57kts
02-Sep-23 13:51 37.012312 -110.201526 193 5218ft 10kts
02-Sep-23 13:52 37.011974 -110.202039 243 5220ft 0kts
02-Sep-23 13:53 37.011974 -110.202039 243 5220ft 0kts
02-Sep-23 13:53 37.011974 -110.202039 243 5220ft 0kts
02-Sep-23 13:55 37.011974 -110.202039 243 5221ft 0kts
02-Sep-23 13:56 37.011974 -110.202039 243 5221ft 0kts
02-Sep-23 13:57 37.011974 -110.202039 243 5221ft 0kts
02-Sep-23 13:58 37.011974 -110.202039 243 5221ft 0kts
02-Sep-23 13:58 37.011974 -110.202039 243 5221ft 0kts
02-Sep-23 13:59 37.011974 -110.202039 243 5221ft 0kts
02-Sep-23 14:01 37.011974 -110.202039 243 5221ft 0kts
02-Sep-23 14:02 37.011974 -110.202039 243 5220ft 0kts
02-Sep-23 14:02 37.011974 -110.202039 243 5220ft 0kts
02-Sep-23 14:03 37.011974 -110.202039 243 5220ft 0kts
02-Sep-23 14:04 37.011974 -110.202039 243 5220ft 0kts

Navigation Log

Ident Type
Flight plan parsing failed, navigation log unavailable